createdAt,value
2017-11-29T00:01:27.108Z,26.42
2017-11-29T00:03:54.503Z,23.80
2017-11-29T00:06:21.896Z,22.90
2017-11-29T00:08:49.292Z,26.17
2017-11-29T00:11:16.680Z,24.70
2017-11-29T00:13:44.080Z,24.60
2017-11-29T00:16:11.476Z,23.53
2017-11-29T00:18:38.871Z,25.33
2017-11-29T00:21:06.265Z,24.93
2017-11-29T00:23:33.647Z,25.60
2017-11-29T00:26:01.048Z,25.50
2017-11-29T00:28:28.440Z,25.83
2017-11-29T00:30:55.931Z,26.37
2017-11-29T00:33:23.318Z,25.23
2017-11-29T00:35:50.705Z,25.63
2017-11-29T00:38:18.086Z,24.87
2017-11-29T00:40:45.552Z,23.63
2017-11-29T00:43:13.008Z,25.57
2017-11-29T00:45:40.424Z,25.60
2017-11-29T00:48:07.800Z,26.50
2017-11-29T00:50:35.286Z,26.97
2017-11-29T00:53:02.660Z,26.57
2017-11-29T00:55:30.053Z,24.87
2017-11-29T00:57:57.440Z,24.47
2017-11-29T01:00:24.832Z,25.23
2017-11-29T01:02:52.224Z,26.00
2017-11-29T01:05:19.627Z,28.10
2017-11-29T01:07:47.039Z,26.20
2017-11-29T01:10:14.519Z,26.40
2017-11-29T01:12:41.988Z,27.80
2017-11-29T01:15:09.400Z,27.67
2017-11-29T01:17:36.784Z,27.70
2017-11-29T01:20:04.172Z,28.10
2017-11-29T01:22:31.592Z,27.73
2017-11-29T01:24:58.971Z,27.30
2017-11-29T01:27:26.373Z,27.27
2017-11-29T01:29:53.761Z,27.80
2017-11-29T01:32:21.155Z,28.43
2017-11-29T01:34:48.539Z,28.00
2017-11-29T01:37:15.937Z,26.90
2017-11-29T01:39:43.330Z,27.70
2017-11-29T01:42:10.728Z,28.13
2017-11-29T01:44:38.124Z,29.07
2017-11-29T01:47:05.513Z,28.70
2017-11-29T01:49:32.899Z,28.07
2017-11-29T01:52:00.352Z,28.40
2017-11-29T01:54:27.748Z,29.50
2017-11-29T01:56:55.170Z,27.90
2017-11-29T01:59:22.560Z,26.30
2017-11-29T02:10:22.888Z,27.50
2017-11-29T02:12:50.346Z,27.30
2017-11-29T02:15:17.731Z,28.30
2017-11-29T02:17:45.115Z,27.93
2017-11-29T02:20:12.516Z,26.47
2017-11-29T02:22:39.977Z,26.27
2017-11-29T02:25:07.468Z,28.00
2017-11-29T02:27:34.849Z,28.73
2017-11-29T02:30:02.232Z,28.10
2017-11-29T02:32:29.730Z,27.87
2017-11-29T02:34:57.163Z,30.63
2017-11-29T02:37:24.604Z,28.77
2017-11-29T02:40:03.840Z,28.20
2017-11-29T02:42:37.811Z,28.37
2017-11-29T02:45:05.201Z,27.33
2017-11-29T02:47:32.656Z,29.53
2017-11-29T02:50:00.125Z,27.70
2017-11-29T02:52:27.508Z,28.93
2017-11-29T02:54:54.922Z,28.33
2017-11-29T02:57:22.298Z,27.50
2017-11-29T02:59:49.709Z,26.03
2017-11-29T03:02:17.119Z,27.33
2017-11-29T03:04:44.519Z,27.97
2017-11-29T03:07:11.908Z,27.37
2017-11-29T03:09:39.313Z,28.83
2017-11-29T03:12:06.697Z,29.57
2017-11-29T03:14:34.194Z,28.87
2017-11-29T03:17:01.597Z,28.47
2017-11-29T03:19:28.980Z,29.13
2017-11-29T03:21:56.372Z,28.57
2017-11-29T03:24:23.768Z,28.37
2017-11-29T03:26:51.156Z,27.27
2017-11-29T03:29:18.597Z,28.90
2017-11-29T03:31:45.977Z,27.67
2017-11-29T03:34:13.367Z,24.67
2017-11-29T03:36:40.756Z,28.20
2017-11-29T03:39:08.237Z,27.63
2017-11-29T03:41:35.619Z,28.17
2017-11-29T03:44:03.017Z,29.97
2017-11-29T03:46:30.405Z,26.77
2017-11-29T03:48:57.806Z,28.90
2017-11-29T03:51:25.188Z,27.30
2017-11-29T03:53:52.571Z,27.60
2017-11-29T03:56:19.963Z,26.10
2017-11-29T03:58:47.347Z,26.80
2017-11-29T04:01:14.749Z,28.63
2017-11-29T04:03:42.193Z,27.97
2017-11-29T04:06:09.583Z,26.77
2017-11-29T04:08:36.995Z,27.67
2017-11-29T04:11:04.391Z,26.40
2017-11-29T04:13:31.772Z,28.20
2017-11-29T04:15:59.170Z,28.13
2017-11-29T04:18:26.554Z,26.47
2017-11-29T04:20:53.950Z,27.27
2017-11-29T04:23:21.345Z,27.60
2017-11-29T04:25:48.715Z,26.30
2017-11-29T04:28:16.103Z,27.63
2017-11-29T04:30:43.606Z,25.30
2017-11-29T04:33:10.991Z,25.60
2017-11-29T04:35:38.389Z,25.87
2017-11-29T04:38:05.855Z,26.07
2017-11-29T04:40:33.250Z,26.80
2017-11-29T04:43:00.637Z,26.93
2017-11-29T04:45:28.132Z,25.03
2017-11-29T04:47:55.591Z,26.07
2017-11-29T04:50:23.001Z,23.87
2017-11-29T04:52:50.373Z,25.37
2017-11-29T04:55:17.780Z,25.03
2017-11-29T04:57:45.202Z,26.77
2017-11-29T05:00:12.583Z,27.13
2017-11-29T05:02:39.982Z,27.33
2017-11-29T05:05:07.368Z,27.83
2017-11-29T05:07:34.832Z,27.90
2017-11-29T05:10:02.228Z,29.13
2017-11-29T05:12:29.624Z,27.00
2017-11-29T05:14:57.012Z,25.97
2017-11-29T05:17:24.423Z,29.53
2017-11-29T05:19:51.794Z,28.63
2017-11-29T05:22:19.196Z,28.83
2017-11-29T05:24:46.588Z,31.63
2017-11-29T05:27:13.984Z,27.33
2017-11-29T05:29:41.367Z,26.33
2017-11-29T05:32:08.788Z,28.33
2017-11-29T05:34:36.182Z,27.50
2017-11-29T05:37:03.574Z,29.00
2017-11-29T05:39:30.956Z,28.97
2017-11-29T05:41:58.412Z,29.03
2017-11-29T05:44:25.795Z,30.37
2017-11-29T05:46:53.225Z,28.43
2017-11-29T05:49:20.606Z,29.67
2017-11-29T05:51:48.005Z,30.43
2017-11-29T05:54:15.388Z,27.90
2017-11-29T05:56:42.883Z,28.87
2017-11-29T05:59:10.291Z,27.33
2017-11-29T06:01:37.699Z,30.67
2017-11-29T06:04:05.092Z,28.40
2017-11-29T06:06:32.480Z,29.40
2017-11-29T06:08:59.884Z,30.83
2017-11-29T06:11:27.283Z,30.73
2017-11-29T06:13:54.780Z,28.77
2017-11-29T06:16:22.227Z,31.17
2017-11-29T06:18:49.623Z,29.20
2017-11-29T06:21:17.003Z,29.77
2017-11-29T06:23:44.399Z,30.50
2017-11-29T06:26:11.788Z,30.97
2017-11-29T06:28:39.197Z,30.87
2017-11-29T06:31:06.594Z,30.33
2017-11-29T06:33:33.980Z,30.30
2017-11-29T06:36:01.375Z,29.97
2017-11-29T06:38:28.768Z,28.60
2017-11-29T06:40:56.183Z,31.87
2017-11-29T06:43:23.572Z,31.27
2017-11-29T06:45:50.951Z,29.97
2017-11-29T06:48:18.503Z,31.90
2017-11-29T06:50:45.875Z,30.10
2017-11-29T06:53:13.263Z,30.63
2017-11-29T06:55:40.648Z,31.33
2017-11-29T06:58:08.076Z,30.87
2017-11-29T07:00:35.529Z,30.90
2017-11-29T07:03:02.948Z,29.77
2017-11-29T07:05:30.336Z,30.30
2017-11-29T07:07:57.720Z,32.47
2017-11-29T07:10:25.186Z,30.13
2017-11-29T07:12:52.576Z,31.23
2017-11-29T07:15:20.060Z,30.50
2017-11-29T07:17:47.444Z,30.10
2017-11-29T07:20:14.844Z,30.00
2017-11-29T07:22:42.491Z,30.77
2017-11-29T07:25:09.887Z,31.00
2017-11-29T07:27:37.305Z,28.97
2017-11-29T07:30:04.788Z,31.27
2017-11-29T07:32:32.252Z,28.47
2017-11-29T07:34:59.647Z,30.97
2017-11-29T07:37:27.076Z,30.87
2017-11-29T07:39:54.465Z,30.07
2017-11-29T07:42:21.847Z,29.70
2017-11-29T07:44:49.259Z,33.00
2017-11-29T07:47:16.669Z,30.17
2017-11-29T07:49:44.071Z,29.20
2017-11-29T07:52:11.499Z,30.27
2017-11-29T07:54:38.889Z,30.10
2017-11-29T07:57:06.320Z,30.00
2017-11-29T07:59:33.764Z,29.50
2017-11-29T08:02:01.148Z,28.60
2017-11-29T08:04:28.573Z,30.30
2017-11-29T08:06:55.964Z,27.80
2017-11-29T08:09:23.351Z,29.53
2017-11-29T08:11:50.739Z,30.37
2017-11-29T08:14:18.138Z,29.10
2017-11-29T08:16:45.563Z,28.23
2017-11-29T08:19:12.941Z,28.53
2017-11-29T08:21:40.331Z,26.83
2017-11-29T08:24:07.722Z,26.90
2017-11-29T08:26:35.132Z,28.53
2017-11-29T08:29:02.585Z,28.60
2017-11-29T08:31:29.985Z,28.70
2017-11-29T08:33:57.392Z,28.97
2017-11-29T08:36:24.914Z,26.23
2017-11-29T08:38:52.296Z,28.53
2017-11-29T08:41:19.688Z,29.63
2017-11-29T08:43:47.067Z,28.37
2017-11-29T08:46:14.469Z,26.80
2017-11-29T08:48:41.900Z,28.00
2017-11-29T08:51:09.285Z,27.90
2017-11-29T08:53:36.736Z,27.93
2017-11-29T08:56:04.132Z,25.57
2017-11-29T08:58:31.516Z,25.73
2017-11-29T09:00:58.911Z,25.53
2017-11-29T09:03:26.360Z,26.87
2017-11-29T09:05:53.811Z,26.60
2017-11-29T09:08:21.263Z,27.60
2017-11-29T09:10:48.668Z,23.63
2017-11-29T09:13:16.056Z,24.90
2017-11-29T09:15:43.448Z,24.27
2017-11-29T09:18:10.891Z,26.40
2017-11-29T09:20:38.279Z,29.40
2017-11-29T09:23:05.676Z,23.77
2017-11-29T09:25:33.069Z,23.23
2017-11-29T09:28:00.463Z,25.40
2017-11-29T09:30:27.854Z,23.60
2017-11-29T09:32:55.321Z,23.93
2017-11-29T09:35:22.796Z,25.03
2017-11-29T09:37:50.188Z,23.63
2017-11-29T09:40:17.567Z,32.77
2017-11-29T09:42:44.960Z,24.90
2017-11-29T09:45:12.352Z,27.57
2017-11-29T09:47:39.760Z,24.97
2017-11-29T09:50:07.155Z,34.70
2017-11-29T09:52:34.547Z,30.17
2017-11-29T09:55:01.949Z,25.30
2017-11-29T09:57:29.337Z,27.30
2017-11-29T09:59:56.724Z,23.03
2017-11-29T10:02:24.110Z,21.85
2017-11-29T10:04:51.531Z,22.70
2017-11-29T10:07:18.927Z,24.43
2017-11-29T10:09:45.612Z,27.77
2017-11-29T10:12:13.107Z,25.73
2017-11-29T10:14:40.551Z,23.67
2017-11-29T10:17:07.947Z,24.93
2017-11-29T10:19:35.351Z,24.80
2017-11-29T10:22:02.751Z,24.13
2017-11-29T10:24:30.312Z,25.60
2017-11-29T10:26:57.709Z,26.03
2017-11-29T10:29:25.199Z,23.37
2017-11-29T10:31:52.640Z,25.03
2017-11-29T10:34:20.037Z,25.67
2017-11-29T10:36:47.423Z,23.77
2017-11-29T10:39:14.900Z,30.90
2017-11-29T10:41:42.306Z,30.43
2017-11-29T10:44:09.693Z,26.50
2017-11-29T10:46:37.163Z,25.97
2017-11-29T10:49:04.588Z,25.63
2017-11-29T10:51:31.982Z,22.10
2017-11-29T10:53:59.428Z,23.20
2017-11-29T10:56:26.833Z,27.40
2017-11-29T10:58:54.231Z,31.47
2017-11-29T11:01:21.621Z,29.37
2017-11-29T11:03:49.013Z,25.40
2017-11-29T11:06:16.396Z,24.27
2017-11-29T11:08:43.868Z,21.83
2017-11-29T11:11:11.325Z,27.47
2017-11-29T11:13:38.719Z,27.80
2017-11-29T11:16:06.139Z,27.13
2017-11-29T11:18:33.539Z,26.27
2017-11-29T11:21:00.915Z,27.60
2017-11-29T11:23:28.314Z,28.43
2017-11-29T11:25:55.707Z,25.60
2017-11-29T11:28:23.092Z,25.40
2017-11-29T11:30:50.489Z,27.10
2017-11-29T11:33:17.871Z,24.83
2017-11-29T11:35:45.276Z,25.03
2017-11-29T11:38:12.732Z,28.20
2017-11-29T11:40:40.124Z,25.17
2017-11-29T11:43:07.562Z,25.50
2017-11-29T11:45:34.953Z,24.27
2017-11-29T11:48:02.373Z,25.47
2017-11-29T11:50:29.732Z,25.70
2017-11-29T11:52:57.112Z,26.30
2017-11-29T11:55:24.516Z,23.27
2017-11-29T11:57:51.903Z,25.63
2017-11-29T12:00:19.292Z,22.60
2017-11-29T12:02:46.684Z,22.57
2017-11-29T12:05:14.089Z,24.53
2017-11-29T12:07:41.497Z,23.10
2017-11-29T12:10:08.948Z,22.63
2017-11-29T12:12:36.340Z,22.90
2017-11-29T12:15:03.727Z,25.20
2017-11-29T12:17:31.222Z,27.53
2017-11-29T12:19:58.608Z,23.70
2017-11-29T12:22:25.997Z,24.67
2017-11-29T12:24:53.485Z,24.20
2017-11-29T12:27:20.871Z,23.80
2017-11-29T12:29:48.259Z,24.30
2017-11-29T12:32:15.762Z,23.07
2017-11-29T12:34:43.148Z,23.10
2017-11-29T12:37:10.568Z,23.03
2017-11-29T12:39:37.945Z,22.17
2017-11-29T12:42:05.367Z,24.00
2017-11-29T12:44:32.727Z,22.57
2017-11-29T12:47:00.186Z,22.33
2017-11-29T12:49:39.512Z,20.13
2017-11-29T12:52:06.913Z,21.90
2017-11-29T12:54:34.324Z,21.30
2017-11-29T12:57:01.725Z,20.77
2017-11-29T12:59:29.104Z,21.90
2017-11-29T13:01:56.514Z,22.80
2017-11-29T13:04:23.891Z,24.10
2017-11-29T13:06:51.283Z,23.33
2017-11-29T13:09:18.724Z,21.20
2017-11-29T13:11:46.121Z,23.77
2017-11-29T13:14:13.513Z,24.00
2017-11-29T13:16:40.891Z,20.83
2017-11-29T13:19:08.339Z,20.97
2017-11-29T13:21:35.804Z,21.40
2017-11-29T13:24:03.188Z,22.73
2017-11-29T13:26:30.578Z,20.77
2017-11-29T13:28:57.971Z,22.20
2017-11-29T13:31:25.382Z,24.80
2017-11-29T13:33:52.885Z,23.43
2017-11-29T13:36:20.271Z,24.90
2017-11-29T13:38:47.661Z,23.10
2017-11-29T13:41:15.144Z,26.70
2017-11-29T13:43:42.537Z,21.70
2017-11-29T13:46:09.928Z,19.53
2017-11-29T13:48:37.409Z,20.33
2017-11-29T13:51:04.822Z,20.97
2017-11-29T13:53:32.191Z,20.87
2017-11-29T13:55:59.573Z,21.00
2017-11-29T13:58:26.955Z,20.77
2017-11-29T14:00:54.343Z,18.10
2017-11-29T14:03:21.848Z,19.47
2017-11-29T14:05:49.305Z,19.10
2017-11-29T14:08:16.692Z,18.73
2017-11-29T14:10:44.094Z,18.10
2017-11-29T14:13:11.493Z,19.60
2017-11-29T14:15:38.924Z,20.03
2017-11-29T14:18:06.321Z,19.67
2017-11-29T14:20:33.703Z,20.00
2017-11-29T14:23:01.100Z,20.17
2017-11-29T14:25:28.476Z,21.20
2017-11-29T14:27:55.870Z,20.90
2017-11-29T14:30:23.269Z,20.70
2017-11-29T14:32:50.676Z,21.13
2017-11-29T14:35:18.068Z,23.30
2017-11-29T14:37:45.464Z,21.83
2017-11-29T14:40:12.861Z,23.43
2017-11-29T14:42:40.244Z,21.87
2017-11-29T14:45:07.668Z,20.50
2017-11-29T14:47:35.051Z,22.20
2017-11-29T14:50:02.458Z,23.33
2017-11-29T14:52:29.831Z,23.10
2017-11-29T14:54:57.327Z,21.67
2017-11-29T14:57:24.712Z,30.23
2017-11-29T14:59:52.099Z,22.53
2017-11-29T15:02:19.488Z,22.37
2017-11-29T15:04:46.876Z,25.90
2017-11-29T15:07:14.267Z,22.53
2017-11-29T15:09:41.663Z,20.37
2017-11-29T15:12:09.056Z,19.30
2017-11-29T15:14:36.448Z,17.90
2017-11-29T15:17:03.872Z,21.03
2017-11-29T15:19:32.144Z,20.13
2017-11-29T15:21:59.596Z,20.33
2017-11-29T15:24:26.996Z,23.53
2017-11-29T15:26:54.380Z,21.30
2017-11-29T15:29:21.883Z,21.53
2017-11-29T15:31:49.274Z,21.63
2017-11-29T15:34:16.664Z,25.10
2017-11-29T15:36:44.086Z,28.20
2017-11-29T15:39:11.482Z,26.93
2017-11-29T15:41:38.863Z,27.17
2017-11-29T15:44:06.303Z,24.43
2017-11-29T15:46:33.707Z,26.33
2017-11-29T15:49:01.091Z,24.47
2017-11-29T15:51:28.487Z,26.20
2017-11-29T15:53:55.866Z,25.80
2017-11-29T15:56:23.257Z,25.10
2017-11-29T15:58:50.651Z,27.13
2017-11-29T16:01:18.047Z,28.33
2017-11-29T16:03:45.439Z,25.40
2017-11-29T16:06:12.894Z,25.50
2017-11-29T16:08:40.355Z,23.97
2017-11-29T16:11:07.803Z,25.53
2017-11-29T16:13:35.200Z,23.73
2017-11-29T16:16:02.592Z,23.50
2017-11-29T16:18:29.982Z,25.73
2017-11-29T16:20:57.376Z,24.53
2017-11-29T16:23:24.768Z,24.80
2017-11-29T16:25:52.170Z,24.77
2017-11-29T16:28:19.554Z,23.67
2017-11-29T16:30:46.953Z,27.03
2017-11-29T16:33:14.366Z,25.53
2017-11-29T16:35:41.759Z,24.80
2017-11-29T16:38:09.144Z,23.77
2017-11-29T16:40:36.547Z,24.13
2017-11-29T16:43:03.953Z,23.90
2017-11-29T16:45:31.383Z,23.50
2017-11-29T16:47:58.779Z,27.70
2017-11-29T16:50:26.164Z,25.67
2017-11-29T16:52:53.555Z,24.97
2017-11-29T16:55:21.002Z,26.07
2017-11-29T16:57:48.395Z,25.33
2017-11-29T17:00:15.796Z,23.92
2017-11-29T17:02:43.192Z,25.40
2017-11-29T17:05:10.579Z,23.77
2017-11-29T17:07:37.993Z,27.70
2017-11-29T17:10:05.368Z,24.30
2017-11-29T17:12:32.776Z,26.90
2017-11-29T17:15:00.164Z,26.13
2017-11-29T17:17:27.601Z,24.13
2017-11-29T17:19:54.979Z,22.87
2017-11-29T17:22:22.372Z,25.30
2017-11-29T17:24:49.767Z,25.13
2017-11-29T17:27:17.160Z,24.83
2017-11-29T17:30:11.593Z,25.33
2017-11-29T17:32:38.992Z,27.30
2017-11-29T17:35:06.373Z,25.00
2017-11-29T17:37:33.761Z,26.70
2017-11-29T17:40:01.224Z,26.20
2017-11-29T17:42:28.603Z,26.10
2017-11-29T17:44:56.267Z,24.97
2017-11-29T17:47:23.705Z,25.93
2017-11-29T17:49:51.088Z,25.30
2017-11-29T17:52:18.495Z,23.80
2017-11-29T17:54:45.961Z,24.90
2017-11-29T17:57:13.343Z,26.70
2017-11-29T17:59:40.741Z,24.00
2017-11-29T18:02:08.147Z,25.97
2017-11-29T18:04:35.543Z,25.63
2017-11-29T18:07:02.943Z,24.37
2017-11-29T18:09:30.419Z,24.73
2017-11-29T18:11:57.792Z,27.40
2017-11-29T18:14:25.184Z,24.63
2017-11-29T18:16:52.571Z,24.40
2017-11-29T18:19:19.960Z,24.47
2017-11-29T18:21:47.432Z,22.87
2017-11-29T18:24:14.828Z,25.80
2017-11-29T18:26:42.223Z,24.63
2017-11-29T18:29:09.616Z,26.30
2017-11-29T18:31:37.002Z,26.43
2017-11-29T18:34:04.540Z,26.07
2017-11-29T18:36:31.928Z,25.10
2017-11-29T18:38:59.430Z,27.40
2017-11-29T18:41:26.810Z,27.17
2017-11-29T18:43:54.231Z,26.90
2017-11-29T18:46:21.634Z,28.10
2017-11-29T18:48:49.008Z,27.30
2017-11-29T18:51:16.396Z,28.70
2017-11-29T18:53:43.780Z,30.93
2017-11-29T18:56:11.214Z,33.53
2017-11-29T18:58:38.598Z,31.00
2017-11-29T19:01:06.027Z,31.30
2017-11-29T19:03:33.423Z,27.90
2017-11-29T19:06:00.914Z,31.23
2017-11-29T19:08:28.424Z,30.17
2017-11-29T19:10:55.837Z,33.60
2017-11-29T19:13:23.223Z,34.07
2017-11-29T19:15:50.612Z,33.03
2017-11-29T19:18:18.005Z,33.83
2017-11-29T19:20:45.472Z,32.57
2017-11-29T19:23:12.873Z,31.70
2017-11-29T19:25:40.285Z,31.20
2017-11-29T19:28:07.732Z,31.37
2017-11-29T19:30:35.130Z,33.33
2017-11-29T19:33:01.807Z,34.50
2017-11-29T19:35:29.203Z,32.80
2017-11-29T19:37:56.645Z,31.53
2017-11-29T19:40:24.043Z,32.90
2017-11-29T19:42:51.430Z,31.60
2017-11-29T19:45:18.911Z,30.20
2017-11-29T19:47:46.367Z,28.50
2017-11-29T19:50:13.764Z,30.90
2017-11-29T19:52:41.158Z,29.30
2017-11-29T19:55:08.627Z,27.33
2017-11-29T19:57:36.027Z,30.63
2017-11-29T20:00:04.050Z,30.10
2017-11-29T20:02:31.460Z,29.13
2017-11-29T20:04:58.851Z,28.70
2017-11-29T20:07:26.248Z,29.43
2017-11-29T20:09:53.651Z,27.50
2017-11-29T20:12:21.032Z,28.37
2017-11-29T20:14:48.432Z,28.00
2017-11-29T20:17:15.823Z,30.87
2017-11-29T20:19:43.220Z,30.13
2017-11-29T20:22:10.627Z,31.00
2017-11-29T20:24:40.828Z,30.67
2017-11-29T20:27:08.248Z,31.80
2017-11-29T20:29:35.638Z,33.37
2017-11-29T20:32:03.147Z,32.13
2017-11-29T20:34:30.594Z,32.90
2017-11-29T20:36:58.065Z,35.37
2017-11-29T20:39:25.443Z,34.43
2017-11-29T20:41:52.878Z,34.70
2017-11-29T20:44:20.264Z,32.70
2017-11-29T20:46:47.651Z,34.10
2017-11-29T20:49:15.048Z,35.10
2017-11-29T20:51:42.484Z,34.17
2017-11-29T20:54:09.948Z,35.50
2017-11-29T20:56:37.349Z,31.53
2017-11-29T20:59:04.772Z,34.30
2017-11-29T21:01:32.187Z,33.90
2017-11-29T21:03:59.683Z,32.30
2017-11-29T21:06:27.077Z,34.13
2017-11-29T21:08:54.576Z,34.93
2017-11-29T21:11:21.983Z,37.63
2017-11-29T21:13:49.367Z,35.00
2017-11-29T21:16:16.042Z,33.43
2017-11-29T21:18:43.443Z,35.40
2017-11-29T21:21:10.833Z,34.50
2017-11-29T21:26:29.095Z,32.07
2017-11-29T21:28:56.488Z,34.60
2017-11-29T21:31:23.873Z,37.27
2017-11-29T21:33:51.276Z,36.60
2017-11-29T21:36:18.659Z,36.57
2017-11-29T21:38:46.047Z,36.37
2017-11-29T21:41:13.444Z,36.10
2017-11-29T21:43:40.885Z,35.53
2017-11-29T21:46:08.296Z,35.57
2017-11-29T21:48:35.680Z,38.23
2017-11-29T21:51:03.071Z,35.07
2017-11-29T21:53:30.463Z,38.70
2017-11-29T21:55:57.855Z,39.13
2017-11-29T21:58:25.261Z,40.50
2017-11-29T22:00:52.636Z,37.50
2017-11-29T22:03:20.040Z,38.90
2017-11-29T22:05:47.436Z,39.80
2017-11-29T22:08:14.832Z,38.40
2017-11-29T22:10:42.280Z,40.07
2017-11-29T22:13:09.668Z,38.33
2017-11-29T22:15:37.065Z,37.83
2017-11-29T22:18:04.457Z,36.10
2017-11-29T22:20:31.920Z,37.97
2017-11-29T22:22:59.302Z,38.17
2017-11-29T22:25:26.715Z,39.50
2017-11-29T22:27:54.131Z,40.00
2017-11-29T22:30:21.519Z,39.50
2017-11-29T22:32:48.976Z,39.63
2017-11-29T22:35:16.435Z,40.00
2017-11-29T22:37:43.832Z,37.87
2017-11-29T22:40:11.225Z,40.10
2017-11-29T22:42:38.613Z,39.90
2017-11-29T22:45:06.082Z,37.70
2017-11-29T22:47:33.462Z,37.30
2017-11-29T22:50:00.871Z,35.27
2017-11-29T22:52:28.315Z,36.00
2017-11-29T22:54:55.717Z,36.60
2017-11-29T22:57:23.099Z,33.23
2017-11-29T22:59:50.499Z,36.33
2017-11-29T23:02:17.947Z,34.53
2017-11-29T23:04:45.341Z,33.10
2017-11-29T23:07:12.726Z,29.10
2017-11-29T23:09:40.212Z,29.70
2017-11-29T23:12:07.596Z,29.80
2017-11-29T23:14:34.988Z,30.13
2017-11-29T23:17:02.380Z,29.67
2017-11-29T23:19:29.765Z,29.10
2017-11-29T23:21:57.160Z,30.80
2017-11-29T23:24:24.554Z,30.87
2017-11-29T23:26:51.944Z,32.33
2017-11-29T23:29:19.352Z,31.73
2017-11-29T23:31:46.806Z,33.83
2017-11-29T23:34:14.193Z,35.17
2017-11-29T23:36:41.678Z,31.63
2017-11-29T23:39:09.066Z,34.10
2017-11-29T23:41:36.458Z,33.03
2017-11-29T23:44:03.844Z,33.30
2017-11-29T23:46:31.247Z,34.33
2017-11-29T23:48:58.640Z,35.07
2017-11-29T23:51:26.044Z,34.60
2017-11-29T23:53:53.426Z,34.23
2017-11-29T23:56:20.820Z,34.83
2017-11-29T23:58:48.276Z,35.10
